Time;durP1;ratioP1;P1;durP2;ratioP2;P2;SDS_P1;SDS_P2;PMS_P1;PMS_P2;Temp;Humidity;BMP_temperature;BMP_pressure;BME280_temperature;BME280_humidity;BME280_pressure;Samples;Min_cycle;Max_cycle;Signal;HPM_P1;HPM_P2
2022/07/25 00:02:20;;;;;;;;;;;20.20;99.90;;;;;;5074027;28;19912;-78
2022/07/25 00:04:45;;;;;;;;;;;20.30;99.90;;;;;;5073956;28;20319;-78
2022/07/25 00:07:11;;;;;;;;;;;20.10;99.90;;;;;;5073846;28;19908;-82
2022/07/25 00:09:37;;;;;;;;;;;20.10;99.90;;;;;;5074095;28;19912;-81
2022/07/25 00:12:02;;;;;;;;;;;20.00;99.90;;;;;;5073872;28;20007;-78
2022/07/25 00:14:28;;;;;;;;;;;19.90;99.90;;;;;;5074094;28;19908;-77
2022/07/25 00:16:54;;;;;;;;;;;19.90;99.90;;;;;;5073718;28;20015;-78
2022/07/25 00:19:19;;;;;;;;;;;19.80;99.90;;;;;;5073843;28;19914;-78
2022/07/25 00:21:45;;;;;;;;;;;19.80;99.90;;;;;;5073953;28;20391;-79
2022/07/25 00:24:10;;;;;;;;;;;19.70;99.90;;;;;;5073628;28;19909;-81
2022/07/25 00:26:36;;;;;;;;;;;19.70;99.90;;;;;;5073306;28;19912;-82
2022/07/25 00:29:02;;;;;;;;;;;19.80;99.90;;;;;;5073185;28;20376;-78
2022/07/25 00:31:27;;;;;;;;;;;19.80;99.90;;;;;;5073615;28;19943;-81
2022/07/25 00:33:53;;;;;;;;;;;19.70;99.90;;;;;;5074378;28;19917;-80
2022/07/25 00:36:18;;;;;;;;;;;19.80;99.90;;;;;;5073403;28;19919;-81
2022/07/25 00:38:44;;;;;;;;;;;19.90;99.90;;;;;;5073098;28;20483;-80
2022/07/25 00:41:09;;;;;;;;;;;19.90;99.90;;;;;;5073083;28;19918;-79
2022/07/25 00:43:35;;;;;;;;;;;19.90;99.90;;;;;;5073758;28;19999;-81
2022/07/25 00:46:01;;;;;;;;;;;19.80;99.90;;;;;;5073289;28;19908;-79
2022/07/25 00:48:27;;;;;;;;;;;20.00;99.90;;;;;;5055335;28;20353;-79
2022/07/25 00:50:53;;;;;;;;;;;20.00;99.90;;;;;;5073690;28;19908;-81
2022/07/25 00:53:18;;;;;;;;;;;19.90;99.90;;;;;;5077786;28;19908;-80
2022/07/25 00:55:45;;;;;;;;;;;19.80;99.90;;;;;;5077552;28;19948;-80
2022/07/25 00:58:10;;;;;;;;;;;19.90;99.90;;;;;;5077435;28;19913;-80
2022/07/25 01:00:36;;;;;;;;;;;19.80;99.90;;;;;;5077529;28;19913;-80
2022/07/25 01:03:01;;;;;;;;;;;19.80;99.90;;;;;;5077443;28;19931;-79
2022/07/25 01:05:27;;;;;;;;;;;19.70;99.90;;;;;;5077722;28;19908;-78
2022/07/25 01:07:53;;;;;;;;;;;19.60;99.90;;;;;;5077238;28;20288;-80
2022/07/25 01:10:18;;;;;;;;;;;19.40;99.90;;;;;;5077448;28;19908;-81
2022/07/25 01:12:47;;;;;;;;;;;19.40;99.90;;;;;;5077237;28;19915;-80
2022/07/25 01:15:14;;;;;;;;;;;19.40;99.90;;;;;;5077411;28;19908;-82
2022/07/25 01:17:40;;;;;;;;;;;19.30;99.90;;;;;;5077300;28;20374;-82
2022/07/25 01:20:12;;;;;;;;;;;19.20;99.90;;;;;;5077041;28;19908;-81
2022/07/25 01:22:37;;;;;;;;;;;19.10;99.90;;;;;;5077067;28;20007;-78
2022/07/25 01:25:03;;;;;;;;;;;19.20;99.90;;;;;;5077021;28;19956;-81
2022/07/25 01:27:30;;;;;;;;;;;19.10;99.90;;;;;;5077271;28;19916;-80
2022/07/25 01:29:55;;;;;;;;;;;19.00;99.90;;;;;;5077139;28;19909;-79
2022/07/25 01:32:21;;;;;;;;;;;18.90;99.90;;;;;;5076911;28;19908;-78
2022/07/25 01:34:47;;;;;;;;;;;19.00;99.90;;;;;;5077317;28;19930;-79
2022/07/25 01:37:12;;;;;;;;;;;19.10;99.90;;;;;;5076659;28;19913;-81
2022/07/25 01:39:38;;;;;;;;;;;19.10;99.90;;;;;;5076957;28;19908;-81
2022/07/25 01:42:03;;;;;;;;;;;19.20;99.90;;;;;;5076097;28;19920;-81
2022/07/25 01:44:29;;;;;;;;;;;19.10;99.90;;;;;;5076234;28;19908;-80
2022/07/25 01:46:54;;;;;;;;;;;19.20;99.90;;;;;;5076530;28;20368;-78
2022/07/25 01:49:20;;;;;;;;;;;19.20;99.90;;;;;;5076448;28;19940;-80
2022/07/25 01:51:46;;;;;;;;;;;19.30;99.90;;;;;;5076745;28;19919;-79
2022/07/25 01:54:11;;;;;;;;;;;19.40;99.90;;;;;;5076563;28;19916;-82
2022/07/25 01:56:41;;;;;;;;;;;19.60;99.90;;;;;;5076355;28;20277;-78
2022/07/25 01:59:07;;;;;;;;;;;19.60;99.90;;;;;;5076515;28;19913;-80
2022/07/25 02:01:33;;;;;;;;;;;19.70;99.90;;;;;;5076473;28;19909;-77
2022/07/25 02:03:58;;;;;;;;;;;19.70;99.90;;;;;;5075472;28;20351;-78
2022/07/25 02:06:24;;;;;;;;;;;19.90;99.90;;;;;;5076251;28;19908;-77
2022/07/25 02:08:49;;;;;;;;;;;19.80;99.90;;;;;;5076390;28;19915;-79
2022/07/25 02:11:15;;;;;;;;;;;19.90;99.90;;;;;;5076331;28;20379;-77
2022/07/25 02:13:40;;;;;;;;;;;19.90;99.90;;;;;;5076166;28;19999;-78
2022/07/25 02:16:06;;;;;;;;;;;19.80;99.90;;;;;;5076022;28;20035;-80
2022/07/25 02:18:32;;;;;;;;;;;19.90;99.90;;;;;;5076032;28;19909;-82
2022/07/25 02:20:57;;;;;;;;;;;20.10;99.90;;;;;;5075990;28;19915;-81
2022/07/25 02:23:23;;;;;;;;;;;20.10;99.90;;;;;;5075957;28;19913;-78
2022/07/25 02:25:48;;;;;;;;;;;20.00;99.90;;;;;;5075891;28;19909;-80
2022/07/25 02:28:14;;;;;;;;;;;20.10;99.90;;;;;;5076083;28;19908;-81
2022/07/25 02:30:39;;;;;;;;;;;20.10;99.90;;;;;;5075839;28;20356;-79
2022/07/25 02:33:05;;;;;;;;;;;20.20;99.90;;;;;;5075752;28;19908;-77
2022/07/25 02:35:31;;;;;;;;;;;20.20;99.90;;;;;;5075708;28;20072;-81
2022/07/25 02:37:56;;;;;;;;;;;20.40;99.90;;;;;;5075508;28;20388;-78
2022/07/25 02:40:22;;;;;;;;;;;20.50;99.90;;;;;;5075639;28;19971;-80
2022/07/25 02:42:47;;;;;;;;;;;20.40;99.90;;;;;;5074940;28;19982;-81
2022/07/25 02:45:13;;;;;;;;;;;20.60;99.90;;;;;;5075262;28;19988;-80
2022/07/25 02:47:39;;;;;;;;;;;20.60;99.90;;;;;;5075509;28;19908;-80
2022/07/25 02:50:05;;;;;;;;;;;20.40;99.90;;;;;;5075185;28;20302;-78
2022/07/25 02:52:30;;;;;;;;;;;20.20;99.90;;;;;;5075257;28;20389;-79
2022/07/25 02:54:56;;;;;;;;;;;20.40;99.90;;;;;;5075096;28;19913;-80
2022/07/25 02:57:21;;;;;;;;;;;20.40;99.90;;;;;;5074545;28;19912;-78
2022/07/25 02:59:47;;;;;;;;;;;20.30;99.90;;;;;;5074621;28;19951;-78
2022/07/25 03:02:12;;;;;;;;;;;20.30;99.90;;;;;;5074794;28;20385;-79
2022/07/25 03:04:38;;;;;;;;;;;20.20;99.90;;;;;;5074567;28;19999;-79
2022/07/25 03:07:04;;;;;;;;;;;20.10;99.90;;;;;;5074884;28;20315;-78
2022/07/25 03:09:29;;;;;;;;;;;20.10;99.90;;;;;;5074975;28;19909;-82
2022/07/25 03:11:55;;;;;;;;;;;20.10;99.90;;;;;;5074896;28;20001;-80
2022/07/25 03:14:20;;;;;;;;;;;20.00;99.90;;;;;;5074420;28;19909;-81
2022/07/25 03:16:46;;;;;;;;;;;19.90;99.90;;;;;;5074422;28;20139;-82
2022/07/25 03:19:13;;;;;;;;;;;20.00;99.90;;;;;;5074739;28;19909;-82
2022/07/25 03:21:38;;;;;;;;;;;20.00;99.90;;;;;;5074540;28;20311;-82
2022/07/25 03:24:04;;;;;;;;;;;20.00;99.90;;;;;;5056474;28;19908;-79
2022/07/25 03:26:30;;;;;;;;;;;20.00;99.90;;;;;;5056588;28;20003;-79
2022/07/25 03:28:55;;;;;;;;;;;20.00;99.90;;;;;;5073941;28;20302;-83
2022/07/25 03:31:21;;;;;;;;;;;20.20;99.90;;;;;;5074737;28;19954;-80
2022/07/25 03:33:46;;;;;;;;;;;20.20;99.90;;;;;;5075217;28;20011;-78
2022/07/25 03:36:12;;;;;;;;;;;20.30;99.90;;;;;;5074302;28;19908;-78
2022/07/25 03:38:38;;;;;;;;;;;20.20;99.90;;;;;;5074060;28;19909;-77
2022/07/25 03:41:04;;;;;;;;;;;20.20;99.90;;;;;;5074541;28;19955;-79
2022/07/25 03:43:30;;;;;;;;;;;20.10;99.90;;;;;;5053953;28;19913;-77
2022/07/25 03:45:55;;;;;;;;;;;20.10;99.90;;;;;;5036300;28;19908;-80
2022/07/25 03:48:21;;;;;;;;;;;20.10;99.90;;;;;;5054083;28;19958;-81
2022/07/25 03:50:47;;;;;;;;;;;19.90;99.90;;;;;;5054274;28;20006;-78
2022/07/25 03:53:13;;;;;;;;;;;20.00;99.90;;;;;;5054615;28;19909;-81
2022/07/25 03:55:38;;;;;;;;;;;20.00;99.90;;;;;;5054220;28;20023;-78
2022/07/25 03:58:04;;;;;;;;;;;20.00;99.90;;;;;;5054194;28;20281;-80
2022/07/25 04:00:30;;;;;;;;;;;20.10;99.90;;;;;;5053863;28;20276;-80
2022/07/25 04:02:55;;;;;;;;;;;20.10;99.90;;;;;;5053879;28;19951;-82
2022/07/25 04:05:21;;;;;;;;;;;20.20;99.90;;;;;;5054192;28;20404;-77
2022/07/25 04:07:46;;;;;;;;;;;20.20;99.90;;;;;;5053948;28;19919;-79
2022/07/25 04:10:12;;;;;;;;;;;20.20;99.90;;;;;;5054148;28;19952;-79
2022/07/25 04:12:37;;;;;;;;;;;20.20;99.90;;;;;;5053923;28;20377;-80
2022/07/25 04:15:03;;;;;;;;;;;20.20;99.90;;;;;;5053925;28;19908;-80
2022/07/25 04:17:29;;;;;;;;;;;20.20;99.90;;;;;;5053799;28;19912;-80
2022/07/25 04:19:55;;;;;;;;;;;20.20;99.90;;;;;;5035819;28;19916;-80
2022/07/25 04:22:21;;;;;;;;;;;20.20;99.90;;;;;;5053864;28;19918;-78
2022/07/25 04:24:46;;;;;;;;;;;20.30;99.90;;;;;;5053728;28;19920;-82
2022/07/25 04:27:12;;;;;;;;;;;20.20;99.90;;;;;;5053264;28;19908;-78
2022/07/25 04:29:38;;;;;;;;;;;20.10;99.90;;;;;;5053640;28;19915;-77
2022/07/25 04:32:03;;;;;;;;;;;20.20;99.90;;;;;;5053954;28;19995;-78
2022/07/25 04:34:29;;;;;;;;;;;20.10;99.90;;;;;;5054425;28;19958;-77
2022/07/25 04:36:55;;;;;;;;;;;20.10;99.90;;;;;;5053439;28;19936;-83
2022/07/25 04:39:20;;;;;;;;;;;20.10;99.90;;;;;;5053454;28;20392;-81
2022/07/25 04:41:46;;;;;;;;;;;20.20;99.90;;;;;;5059168;28;19924;-80
2022/07/25 04:44:12;;;;;;;;;;;20.20;99.90;;;;;;5073702;28;20376;-79
2022/07/25 04:46:37;;;;;;;;;;;20.20;99.90;;;;;;5055496;28;19908;-81
2022/07/25 04:49:03;;;;;;;;;;;20.10;99.90;;;;;;5073453;28;19973;-80
2022/07/25 04:51:28;;;;;;;;;;;20.10;99.90;;;;;;5073411;28;20280;-82
2022/07/25 04:53:54;;;;;;;;;;;20.10;99.90;;;;;;5073626;28;19908;-79
2022/07/25 04:56:19;;;;;;;;;;;20.20;99.90;;;;;;5073651;28;19908;-82
2022/07/25 04:58:45;;;;;;;;;;;20.30;99.90;;;;;;5073572;28;20074;-79
2022/07/25 05:01:11;;;;;;;;;;;20.50;99.90;;;;;;5073294;28;19916;-80
2022/07/25 05:03:36;;;;;;;;;;;20.50;99.90;;;;;;5073326;28;19919;-78
2022/07/25 05:06:02;;;;;;;;;;;20.50;99.90;;;;;;5073748;28;20393;-80
2022/07/25 05:08:28;;;;;;;;;;;20.60;99.90;;;;;;5073261;28;19908;-76
2022/07/25 05:10:53;;;;;;;;;;;20.70;99.90;;;;;;5073537;28;20380;-78
2022/07/25 05:13:19;;;;;;;;;;;20.60;99.90;;;;;;5073198;28;20289;-78
2022/07/25 05:15:44;;;;;;;;;;;20.60;99.90;;;;;;5073174;28;19999;-79
2022/07/25 05:18:10;;;;;;;;;;;20.40;99.90;;;;;;5073085;28;20254;-81
2022/07/25 05:20:35;;;;;;;;;;;20.40;99.90;;;;;;5073365;28;19909;-82
2022/07/25 05:23:01;;;;;;;;;;;20.40;99.90;;;;;;5073256;28;19975;-80
2022/07/25 05:25:28;;;;;;;;;;;20.40;99.90;;;;;;5073115;28;19920;-77
2022/07/25 05:27:56;;;;;;;;;;;20.30;99.90;;;;;;5055119;28;19909;-82
2022/07/25 05:30:21;;;;;;;;;;;20.40;99.90;;;;;;5073032;28;19909;-80
2022/07/25 05:32:47;;;;;;;;;;;20.30;99.90;;;;;;5073038;28;20285;-78
2022/07/25 05:35:13;;;;;;;;;;;20.20;99.90;;;;;;5073576;28;19999;-80
2022/07/25 05:37:38;;;;;;;;;;;20.20;99.90;;;;;;5072779;28;19912;-77
2022/07/25 05:40:05;;;;;;;;;;;20.10;99.90;;;;;;5076844;28;20433;-81
2022/07/25 05:42:30;;;;;;;;;;;19.80;99.90;;;;;;5076433;28;20446;-79
2022/07/25 05:44:56;;;;;;;;;;;19.90;99.90;;;;;;5058752;28;19912;-80
2022/07/25 05:47:21;;;;;;;;;;;19.90;99.90;;;;;;5058608;28;20023;-83
2022/07/25 05:49:47;;;;;;;;;;;19.80;99.90;;;;;;5076492;28;19908;-80
2022/07/25 05:52:12;;;;;;;;;;;19.80;99.90;;;;;;5076545;28;20400;-81
2022/07/25 05:54:39;;;;;;;;;;;19.90;99.90;;;;;;5076646;28;19914;-79
2022/07/25 05:57:05;;;;;;;;;;;20.00;99.90;;;;;;5076357;28;19912;-81
2022/07/25 05:59:30;;;;;;;;;;;20.00;99.90;;;;;;5076417;28;19915;-79
2022/07/25 06:01:56;;;;;;;;;;;20.00;99.90;;;;;;5076345;28;19909;-84
2022/07/25 06:04:21;;;;;;;;;;;20.00;99.90;;;;;;5076392;28;20000;-83
2022/07/25 06:06:50;;;;;;;;;;;20.10;99.90;;;;;;5076351;28;20300;-82
2022/07/25 06:09:16;;;;;;;;;;;20.10;99.90;;;;;;5076291;28;19908;-79
2022/07/25 06:11:42;;;;;;;;;;;20.20;99.90;;;;;;5076166;28;19908;-81
2022/07/25 06:14:08;;;;;;;;;;;20.10;99.90;;;;;;5076093;28;19915;-79
2022/07/25 06:16:33;;;;;;;;;;;20.20;99.90;;;;;;5076356;28;19920;-77
2022/07/25 06:18:59;;;;;;;;;;;20.20;99.90;;;;;;5076226;28;20430;-79
2022/07/25 06:21:24;;;;;;;;;;;20.40;99.90;;;;;;5076011;28;19909;-80
2022/07/25 06:23:50;;;;;;;;;;;20.50;99.90;;;;;;5075941;28;19947;-81
2022/07/25 06:26:15;;;;;;;;;;;20.50;99.90;;;;;;5076145;28;20365;-78
2022/07/25 06:28:41;;;;;;;;;;;20.60;99.90;;;;;;5075872;28;19909;-79
2022/07/25 06:31:07;;;;;;;;;;;20.70;99.90;;;;;;5075790;28;20411;-82
2022/07/25 06:33:33;;;;;;;;;;;20.70;99.90;;;;;;5075917;28;19958;-80
2022/07/25 06:35:58;;;;;;;;;;;20.70;99.90;;;;;;5076270;28;19908;-78
2022/07/25 06:38:24;;;;;;;;;;;20.60;99.90;;;;;;5076010;28;20031;-81
2022/07/25 06:40:49;;;;;;;;;;;20.60;99.90;;;;;;5075921;28;19912;-80
2022/07/25 06:43:15;;;;;;;;;;;20.50;99.90;;;;;;5075222;28;19920;-82
2022/07/25 06:45:45;;;;;;;;;;;20.50;99.90;;;;;;5075629;28;19947;-81
2022/07/25 06:48:11;;;;;;;;;;;20.60;99.90;;;;;;5075748;28;20269;-84
2022/07/25 06:50:37;;;;;;;;;;;20.90;99.90;;;;;;5075096;28;19913;-84
2022/07/25 06:53:05;;;;;;;;;;;20.80;99.90;;;;;;5075453;28;19912;-82
2022/07/25 06:55:30;;;;;;;;;;;21.00;99.90;;;;;;5075405;28;20290;-83
2022/07/25 06:57:56;;;;;;;;;;;21.10;99.90;;;;;;5075335;28;20066;-85
2022/07/25 07:00:22;;;;;;;;;;;21.40;99.90;;;;;;5075270;28;19908;-82
2022/07/25 07:02:48;;;;;;;;;;;21.50;99.90;;;;;;5075267;28;19944;-86
2022/07/25 07:05:13;;;;;;;;;;;21.40;99.90;;;;;;5075191;28;20289;-83
2022/07/25 07:07:39;;;;;;;;;;;21.60;99.90;;;;;;5075316;28;19938;-86
2022/07/25 07:10:05;;;;;;;;;;;21.60;99.90;;;;;;5075010;28;19954;-80
2022/07/25 07:12:30;;;;;;;;;;;21.60;99.90;;;;;;5074925;28;19915;-84
2022/07/25 07:14:56;;;;;;;;;;;21.80;99.90;;;;;;5075318;28;19915;-83
2022/07/25 07:17:21;;;;;;;;;;;22.20;99.90;;;;;;5074828;28;20375;-80
2022/07/25 07:19:47;;;;;;;;;;;22.60;99.90;;;;;;5075064;28;19927;-78
2022/07/25 07:22:12;;;;;;;;;;;23.00;99.90;;;;;;5074896;28;19998;-80
2022/07/25 07:24:38;;;;;;;;;;;23.10;99.90;;;;;;5074832;28;19908;-80
2022/07/25 07:27:03;;;;;;;;;;;23.00;99.90;;;;;;5074683;28;20296;-79
2022/07/25 07:29:29;;;;;;;;;;;23.40;99.90;;;;;;5074874;28;20006;-78
2022/07/25 07:31:55;;;;;;;;;;;24.00;99.90;;;;;;5074720;28;19909;-82
2022/07/25 07:34:20;;;;;;;;;;;23.20;99.90;;;;;;5074847;28;19968;-82
2022/07/25 07:36:46;;;;;;;;;;;22.80;99.90;;;;;;5074445;28;20261;-80
2022/07/25 07:39:11;;;;;;;;;;;23.20;99.90;;;;;;5074879;28;19958;-77
2022/07/25 07:41:37;;;;;;;;;;;22.90;99.90;;;;;;5074222;28;19916;-80
2022/07/25 07:44:04;;;;;;;;;;;22.60;99.90;;;;;;5074380;28;20394;-79
2022/07/25 07:46:29;;;;;;;;;;;22.20;99.90;;;;;;5074395;28;19913;-80
2022/07/25 07:48:55;;;;;;;;;;;22.20;99.90;;;;;;5074257;28;20012;-81
2022/07/25 07:51:21;;;;;;;;;;;22.00;99.90;;;;;;5074493;28;19931;-82
2022/07/25 07:56:30;;;;;;;;;;;24.00;99.90;;;;;;5073928;28;19979;-81
2022/07/25 07:58:56;;;;;;;;;;;24.10;99.90;;;;;;5074095;28;19916;-79
2022/07/25 08:01:23;;;;;;;;;;;25.30;96.80;;;;;;5073498;28;19909;-83
2022/07/25 08:03:49;;;;;;;;;;;26.10;93.20;;;;;;5074114;28;19948;-83
2022/07/25 08:06:15;;;;;;;;;;;27.30;90.50;;;;;;5074111;28;19920;-84
2022/07/25 08:08:40;;;;;;;;;;;26.60;89.00;;;;;;5073990;28;20285;-81
2022/07/25 08:11:06;;;;;;;;;;;25.10;91.20;;;;;;5073914;28;19915;-78
2022/07/25 08:13:36;;;;;;;;;;;24.30;95.90;;;;;;5074338;28;19987;-83
2022/07/25 08:16:02;;;;;;;;;;;24.10;95.60;;;;;;5074072;28;19931;-80
2022/07/25 08:18:34;;;;;;;;;;;23.90;95.00;;;;;;5073762;28;19966;-80
2022/07/25 08:21:02;;;;;;;;;;;23.80;96.00;;;;;;5074080;28;19999;-79
2022/07/25 08:23:27;;;;;;;;;;;24.30;93.80;;;;;;5074233;28;19912;-82
2022/07/25 08:25:53;;;;;;;;;;;25.10;92.40;;;;;;5073815;28;19908;-80
2022/07/25 08:28:19;;;;;;;;;;;25.70;88.60;;;;;;5073946;28;20430;-82
2022/07/25 08:30:45;;;;;;;;;;;25.40;87.30;;;;;;5073692;28;19909;-78
2022/07/25 08:33:17;;;;;;;;;;;25.40;87.80;;;;;;5073913;28;19909;-84
2022/07/25 08:35:53;;;;;;;;;;;25.30;88.40;;;;;;5074364;28;19909;-81
2022/07/25 08:38:19;;;;;;;;;;;25.30;88.50;;;;;;5073630;28;20015;-80
2022/07/25 08:40:45;;;;;;;;;;;25.10;87.60;;;;;;5073597;28;19909;-80
2022/07/25 08:43:12;;;;;;;;;;;25.20;86.50;;;;;;5073065;28;19927;-84
2022/07/25 08:45:42;;;;;;;;;;;26.30;84.00;;;;;;5073544;28;19999;-83
2022/07/25 08:48:08;;;;;;;;;;;26.60;82.70;;;;;;5074016;28;19994;-84
2022/07/25 08:50:33;;;;;;;;;;;26.20;81.10;;;;;;5073523;28;19909;-82
2022/07/25 08:52:59;;;;;;;;;;;25.30;84.20;;;;;;5073647;28;19963;-80
2022/07/25 08:55:24;;;;;;;;;;;24.80;88.00;;;;;;5073392;28;19909;-82
2022/07/25 08:57:51;;;;;;;;;;;24.70;89.40;;;;;;5073553;28;19919;-80
2022/07/25 09:00:18;;;;;;;;;;;24.80;90.00;;;;;;5073557;28;19951;-80
2022/07/25 09:02:50;;;;;;;;;;;26.30;86.00;;;;;;5073391;28;19909;-81
2022/07/25 09:05:17;;;;;;;;;;;26.90;81.30;;;;;;5073432;28;19931;-82
2022/07/25 09:07:43;;;;;;;;;;;26.00;84.00;;;;;;5073318;28;20352;-80
2022/07/25 09:10:15;;;;;;;;;;;25.00;87.70;;;;;;5073250;28;19935;-81
2022/07/25 09:12:41;;;;;;;;;;;24.50;91.20;;;;;;5075056;28;19908;-82
2022/07/25 09:15:07;;;;;;;;;;;24.40;92.70;;;;;;5077284;28;19935;-83
2022/07/25 09:17:36;;;;;;;;;;;24.90;92.10;;;;;;5077166;28;19913;-80
2022/07/25 09:20:03;;;;;;;;;;;26.20;89.30;;;;;;5077139;28;19935;-79
2022/07/25 09:22:29;;;;;;;;;;;26.30;86.20;;;;;;5059100;28;20011;-82
2022/07/25 09:24:55;;;;;;;;;;;26.00;86.40;;;;;;5077111;28;19943;-82
2022/07/25 09:27:20;;;;;;;;;;;26.10;85.20;;;;;;5077093;28;19909;-80
2022/07/25 09:29:46;;;;;;;;;;;27.20;81.00;;;;;;5076643;28;19908;-80
2022/07/25 09:32:15;;;;;;;;;;;28.90;74.80;;;;;;5076717;28;19908;-85
2022/07/25 09:34:43;;;;;;;;;;;28.30;72.00;;;;;;5059546;28;19928;-81
2022/07/25 09:37:11;;;;;;;;;;;27.70;72.20;;;;;;5076755;28;20379;-84
2022/07/25 09:39:41;;;;;;;;;;;27.70;72.90;;;;;;5076778;28;19916;-84
2022/07/25 09:42:15;;;;;;;;;;;28.00;71.80;;;;;;5076641;28;20070;-85
2022/07/25 09:44:41;;;;;;;;;;;28.00;71.60;;;;;;5076761;28;19909;-81
2022/07/25 09:47:10;;;;;;;;;;;29.00;71.10;;;;;;5076660;28;19912;-80
2022/07/25 09:49:42;;;;;;;;;;;28.00;70.80;;;;;;5075859;28;21413;-84
2022/07/25 09:52:08;;;;;;;;;;;26.70;74.50;;;;;;5076613;28;20392;-79
2022/07/25 09:54:33;;;;;;;;;;;26.40;77.10;;;;;;5076775;28;19991;-82
2022/07/25 09:56:59;;;;;;;;;;;26.70;76.10;;;;;;5076399;28;20003;-81
2022/07/25 09:59:25;;;;;;;;;;;26.20;76.60;;;;;;5076444;28;20360;-81
2022/07/25 10:01:55;;;;;;;;;;;26.30;77.30;;;;;;5058406;28;19963;-83
2022/07/25 10:04:21;;;;;;;;;;;26.90;75.90;;;;;;5076355;28;19940;-82
2022/07/25 10:06:51;;;;;;;;;;;28.80;72.10;;;;;;5076312;28;20273;-80
2022/07/25 10:09:17;;;;;;;;;;;29.40;67.90;;;;;;5076325;28;19999;-82
2022/07/25 10:12:01;;;;;;;;;;;28.30;66.30;;;;;;5076275;28;19943;-82
2022/07/25 10:14:26;;;;;;;;;;;27.20;67.00;;;;;;5076338;28;19908;-84
2022/07/25 10:16:52;;;;;;;;;;;27.20;67.60;;;;;;5058046;28;19920;-81
2022/07/25 10:19:37;;;;;;;;;;;27.40;66.90;;;;;;5076102;28;19913;-82
2022/07/25 10:22:03;;;;;;;;;;;27.60;66.00;;;;;;5076142;28;19912;-80
2022/07/25 10:24:33;;;;;;;;;;;27.30;66.10;;;;;;5075249;28;19915;-82
2022/07/25 10:27:06;;;;;;;;;;;27.70;67.00;;;;;;5075904;28;20277;-83
2022/07/25 10:29:32;;;;;;;;;;;32.40;60.30;;;;;;5076252;28;19915;-84
2022/07/25 10:32:04;;;;;;;;;;;35.00;52.90;;;;;;5057939;28;19915;-82
2022/07/25 10:34:34;;;;;;;;;;;32.40;53.90;;;;;;5057608;28;20308;-81
2022/07/25 10:37:12;;;;;;;;;;;29.60;57.80;;;;;;5075704;28;19912;-82
2022/07/25 10:39:39;;;;;;;;;;;28.30;60.30;;;;;;5075678;28;19916;-80
2022/07/25 10:42:05;;;;;;;;;;;29.70;59.60;;;;;;5075493;28;19928;-85
2022/07/25 10:44:41;;;;;;;;;;;35.10;54.40;;;;;;5075745;28;19935;-81
2022/07/25 10:47:11;;;;;;;;;;;34.50;51.50;;;;;;5075538;28;19940;-82
2022/07/25 10:49:39;;;;;;;;;;;31.40;54.30;;;;;;5075433;28;19915;-84
2022/07/25 10:52:04;;;;;;;;;;;30.90;56.30;;;;;;5075471;28;20045;-83
2022/07/25 10:54:34;;;;;;;;;;;31.90;55.10;;;;;;5057362;28;19981;-83
2022/07/25 10:57:00;;;;;;;;;;;33.40;53.70;;;;;;5075265;28;19920;-85
2022/07/25 10:59:27;;;;;;;;;;;33.00;52.60;;;;;;5075703;28;20304;-81
2022/07/25 11:01:53;;;;;;;;;;;31.90;53.60;;;;;;5057327;28;19909;-83
2022/07/25 11:04:19;;;;;;;;;;;30.50;55.80;;;;;;5075230;28;19919;-82
2022/07/25 11:06:44;;;;;;;;;;;29.30;57.80;;;;;;5075162;28;19956;-83
2022/07/25 11:09:18;;;;;;;;;;;28.50;59.10;;;;;;5075075;28;19931;-79
2022/07/25 11:11:47;;;;;;;;;;;28.60;59.50;;;;;;5075266;28;19908;-83
2022/07/25 11:14:14;;;;;;;;;;;28.50;59.80;;;;;;5075102;28;19908;-81
2022/07/25 11:16:40;;;;;;;;;;;28.80;59.70;;;;;;5074917;28;20415;-83
2022/07/25 11:19:19;;;;;;;;;;;28.80;60.10;;;;;;5074930;28;19909;-80
2022/07/25 11:21:46;;;;;;;;;;;30.40;59.00;;;;;;5074861;28;19999;-82
2022/07/25 11:24:12;;;;;;;;;;;33.40;53.90;;;;;;5074887;28;19909;-81
2022/07/25 11:26:48;;;;;;;;;;;35.10;51.10;;;;;;5074872;28;19962;-79
2022/07/25 11:29:20;;;;;;;;;;;35.30;50.30;;;;;;5074478;28;19955;-83
2022/07/25 11:31:52;;;;;;;;;;;34.20;51.30;;;;;;5074658;28;20365;-80
2022/07/25 11:34:22;;;;;;;;;;;34.20;49.90;;;;;;5074685;28;19908;-82
2022/07/25 11:36:47;;;;;;;;;;;34.80;49.90;;;;;;5074597;28;20010;-79
2022/07/25 11:39:16;;;;;;;;;;;34.60;48.80;;;;;;5074631;28;19951;-81
2022/07/25 11:41:41;;;;;;;;;;;34.30;48.40;;;;;;5074347;28;19916;-84
2022/07/25 11:44:07;;;;;;;;;;;34.30;48.30;;;;;;5074631;28;19917;-82
2022/07/25 11:46:43;;;;;;;;;;;34.30;48.30;;;;;;5074821;28;19909;-79
2022/07/25 11:49:09;;;;;;;;;;;34.40;49.20;;;;;;5056443;28;19916;-81
2022/07/25 11:51:36;;;;;;;;;;;34.10;49.60;;;;;;5074577;28;19913;-81
2022/07/25 11:54:07;;;;;;;;;;;34.60;49.30;;;;;;5074301;28;19987;-83
2022/07/25 11:56:36;;;;;;;;;;;35.70;48.50;;;;;;5074468;28;19958;-81
2022/07/25 11:59:01;;;;;;;;;;;35.30;47.40;;;;;;5074241;28;19908;-82
2022/07/25 12:01:38;;;;;;;;;;;36.00;47.10;;;;;;5074428;28;19962;-81
2022/07/25 12:04:14;;;;;;;;;;;35.60;47.50;;;;;;5074133;28;19917;-81
2022/07/25 12:06:42;;;;;;;;;;;36.00;45.80;;;;;;5074233;28;19908;-81
2022/07/25 12:09:12;;;;;;;;;;;36.00;46.30;;;;;;5074002;28;20355;-82
2022/07/25 12:11:38;;;;;;;;;;;37.10;45.00;;;;;;5074239;28;19962;-82
2022/07/25 12:14:04;;;;;;;;;;;36.60;45.00;;;;;;5073902;28;19913;-79
2022/07/25 12:16:30;;;;;;;;;;;35.00;47.00;;;;;;5073887;28;19915;-80
2022/07/25 12:18:55;;;;;;;;;;;34.60;46.60;;;;;;5074324;28;19915;-79
2022/07/25 12:21:21;;;;;;;;;;;32.40;49.20;;;;;;5074780;28;20377;-80
2022/07/25 12:23:47;;;;;;;;;;;32.70;50.40;;;;;;5074704;28;19912;-82
2022/07/25 12:26:13;;;;;;;;;;;35.50;47.00;;;;;;5073803;28;19971;-79
2022/07/25 12:28:39;;;;;;;;;;;35.00;47.20;;;;;;5073804;28;19909;-81
2022/07/25 12:31:04;;;;;;;;;;;32.70;49.00;;;;;;5073758;28;19909;-82
2022/07/25 12:33:31;;;;;;;;;;;32.70;50.20;;;;;;5073669;28;19909;-81
2022/07/25 12:35:57;;;;;;;;;;;34.10;48.10;;;;;;5074238;28;20406;-82
2022/07/25 12:38:23;;;;;;;;;;;33.40;48.30;;;;;;5073527;28;20372;-79
2022/07/25 12:40:49;;;;;;;;;;;33.00;48.70;;;;;;5073648;28;19909;-82
2022/07/25 12:43:14;;;;;;;;;;;31.70;49.90;;;;;;5073186;28;19924;-80
2022/07/25 12:45:41;;;;;;;;;;;30.90;51.70;;;;;;5073568;28;19908;-78
2022/07/25 12:48:07;;;;;;;;;;;31.50;51.20;;;;;;5073148;28;19915;-82
2022/07/25 12:50:32;;;;;;;;;;;31.50;51.20;;;;;;5073493;28;19913;-81
2022/07/25 12:52:58;;;;;;;;;;;33.60;49.90;;;;;;5073360;28;19915;-79
2022/07/25 12:55:24;;;;;;;;;;;36.30;48.30;;;;;;5055216;28;20439;-80
2022/07/25 12:57:49;;;;;;;;;;;38.00;46.00;;;;;;5073332;28;19965;-81
2022/07/25 13:00:17;;;;;;;;;;;37.70;45.30;;;;;;5073481;28;19991;-82
2022/07/25 13:02:42;;;;;;;;;;;35.80;46.20;;;;;;5073397;28;19915;-79
2022/07/25 13:05:09;;;;;;;;;;;34.40;47.70;;;;;;5073631;28;19909;-79
2022/07/25 13:07:34;;;;;;;;;;;33.80;47.70;;;;;;5073498;28;19909;-80
2022/07/25 13:10:01;;;;;;;;;;;34.60;48.00;;;;;;5073382;28;19996;-83
2022/07/25 13:12:26;;;;;;;;;;;33.20;48.40;;;;;;5073701;28;19916;-81
2022/07/25 13:14:52;;;;;;;;;;;32.00;50.30;;;;;;5074455;28;19909;-81
2022/07/25 13:17:17;;;;;;;;;;;32.30;50.20;;;;;;5074558;28;19923;-80
2022/07/25 13:19:43;;;;;;;;;;;32.70;49.90;;;;;;5073355;28;19931;-80
2022/07/25 13:22:09;;;;;;;;;;;32.20;50.00;;;;;;5073447;28;19908;-81
2022/07/25 13:24:34;;;;;;;;;;;31.80;50.40;;;;;;5073135;28;19913;-80
2022/07/25 13:27:03;;;;;;;;;;;31.10;51.10;;;;;;5072760;28;19908;-81
2022/07/25 13:29:29;;;;;;;;;;;32.10;51.10;;;;;;5072976;28;20384;-81
2022/07/25 13:31:54;;;;;;;;;;;31.20;50.90;;;;;;5072990;28;19920;-81
2022/07/25 13:34:20;;;;;;;;;;;31.30;51.60;;;;;;5073084;28;19913;-84
2022/07/25 13:36:46;;;;;;;;;;;31.00;51.60;;;;;;5073463;28;19913;-79
2022/07/25 13:39:12;;;;;;;;;;;30.40;52.20;;;;;;5072983;28;19991;-82
2022/07/25 13:41:37;;;;;;;;;;;29.90;53.10;;;;;;5072911;28;20062;-80
2022/07/25 13:44:03;;;;;;;;;;;30.40;53.10;;;;;;5073231;28;19913;-80
2022/07/25 13:46:29;;;;;;;;;;;30.30;52.80;;;;;;5072994;28;20295;-81
2022/07/25 13:48:55;;;;;;;;;;;29.70;53.70;;;;;;5072882;28;19915;-82
2022/07/25 13:51:20;;;;;;;;;;;29.80;54.20;;;;;;5073333;28;19908;-82
2022/07/25 13:53:46;;;;;;;;;;;30.30;53.20;;;;;;5073195;28;20323;-81
2022/07/25 13:56:12;;;;;;;;;;;29.90;53.60;;;;;;5072788;28;19916;-78
2022/07/25 13:58:38;;;;;;;;;;;30.10;53.70;;;;;;5072754;28;19942;-79
2022/07/25 14:01:04;;;;;;;;;;;29.50;54.40;;;;;;5076515;28;19912;-81
2022/07/25 14:03:29;;;;;;;;;;;29.10;54.50;;;;;;5076336;28;20395;-78
2022/07/25 14:05:55;;;;;;;;;;;28.60;55.80;;;;;;5076568;28;19948;-78
2022/07/25 14:08:21;;;;;;;;;;;28.70;55.90;;;;;;5058843;28;19909;-82
2022/07/25 14:10:47;;;;;;;;;;;28.30;56.70;;;;;;5076949;28;20326;-82
2022/07/25 14:13:12;;;;;;;;;;;28.00;57.30;;;;;;5076604;28;19909;-80
2022/07/25 14:15:38;;;;;;;;;;;27.80;57.70;;;;;;5076222;28;19908;-79